Time;durP1;ratioP1;P1;durP2;ratioP2;P2;SDS_P1;SDS_P2;PMS_P1;PMS_P2;Temp;Humidity;BMP_temperature;BMP_pressure;BME280_temperature;BME280_humidity;BME280_pressure;Samples;Min_cycle;Max_cycle;Signal;HPM_P1;HPM_P2
2022/06/22 00:01:59;;;;;;;14.40;8.37;;;14.40;99.90;;;;;;5076170;28;20130;-75
2022/06/22 00:05:01;;;;;;;12.80;8.13;;;14.40;99.90;;;;;;5094394;28;20277;-75
2022/06/22 00:07:45;;;;;;;10.93;8.30;;;14.30;99.90;;;;;;5061525;28;20756;-75
2022/06/22 00:10:21;;;;;;;14.23;8.87;;;14.30;99.90;;;;;;5094158;28;20278;-74
2022/06/22 00:12:53;;;;;;;11.67;8.27;;;14.20;99.90;;;;;;5094412;28;20278;-74
2022/06/22 00:15:21;;;;;;;13.83;8.83;;;14.20;99.90;;;;;;5093929;28;20270;-75
2022/06/22 00:17:47;;;;;;;13.03;8.23;;;14.10;99.90;;;;;;5094011;28;20282;-75
2022/06/22 00:20:30;;;;;;;14.70;8.60;;;14.00;99.90;;;;;;5093944;28;20286;-75
2022/06/22 00:22:57;;;;;;;12.43;8.33;;;14.00;99.90;;;;;;5076253;28;20052;-73
2022/06/22 00:25:27;;;;;;;13.37;8.07;;;14.00;99.90;;;;;;5093172;28;20318;-75
2022/06/22 00:27:53;;;;;;;12.83;8.60;;;14.00;99.90;;;;;;5093758;28;20286;-76
2022/06/22 00:30:26;;;;;;;9.60;7.73;;;14.00;99.90;;;;;;5093463;28;20289;-75
2022/06/22 00:32:59;;;;;;;14.33;8.87;;;14.00;99.90;;;;;;5093581;28;20062;-75
2022/06/22 00:35:41;;;;;;;11.40;8.33;;;14.00;99.90;;;;;;5075260;28;20293;-75
2022/06/22 00:38:17;;;;;;;14.60;8.77;;;13.90;99.90;;;;;;5093610;28;20803;-74
2022/06/22 00:40:43;;;;;;;11.37;7.27;;;13.90;99.90;;;;;;5059632;28;20313;-75
2022/06/22 00:43:14;;;;;;;11.47;8.07;;;13.90;99.90;;;;;;5093573;28;20754;-74
2022/06/22 00:45:40;;;;;;;13.07;7.83;;;13.80;99.90;;;;;;5075140;28;20477;-74
2022/06/22 00:48:30;;;;;;;13.40;8.23;;;13.70;99.90;;;;;;5093437;28;20366;-75
2022/06/22 00:51:04;;;;;;;11.57;8.40;;;13.70;99.90;;;;;;5093482;28;20286;-74
2022/06/22 00:53:37;;;;;;;12.50;8.10;;;13.70;99.90;;;;;;5093266;28;20643;-74
2022/06/22 00:56:24;;;;;;;10.77;7.67;;;13.80;99.90;;;;;;5075611;28;20324;-75
2022/06/22 00:59:26;;;;;;;11.90;8.00;;;13.70;99.90;;;;;;5093184;28;20286;-75
2022/06/22 01:02:28;;;;;;;12.53;6.67;;;13.60;99.90;;;;;;5081918;28;20700;-74
2022/06/22 01:05:11;;;;;;;10.80;7.60;;;13.60;99.90;;;;;;5093322;28;20285;-75
2022/06/22 01:07:55;;;;;;;12.43;7.47;;;13.60;99.90;;;;;;5092928;28;20294;-74
2022/06/22 01:10:36;;;;;;;11.57;7.40;;;13.60;99.90;;;;;;5093238;28;20285;-74
2022/06/22 01:13:41;;;;;;;12.13;7.00;;;13.60;99.90;;;;;;5093170;28;20314;-74
2022/06/22 01:16:19;;;;;;;9.90;8.20;;;13.60;99.90;;;;;;5075361;28;20330;-74
2022/06/22 01:18:59;;;;;;;15.50;8.07;;;13.50;99.90;;;;;;5075077;28;20754;-74
2022/06/22 01:21:34;;;;;;;10.87;7.87;;;13.50;99.90;;;;;;5092970;28;20321;-75
2022/06/22 01:24:07;;;;;;;14.00;9.03;;;13.50;99.90;;;;;;5092982;28;20274;-74
2022/06/22 01:26:32;;;;;;;11.57;8.40;;;13.40;99.90;;;;;;5092650;28;20297;-75
2022/06/22 01:29:01;;;;;;;14.00;8.63;;;13.40;99.90;;;;;;5092980;28;20626;-74
2022/06/22 01:31:28;;;;;;;15.07;8.63;;;13.30;99.90;;;;;;5092371;28;20098;-75
2022/06/22 01:33:54;;;;;;;11.60;8.10;;;13.30;99.90;;;;;;5075195;28;20381;-75
2022/06/22 01:36:29;;;;;;;11.17;8.40;;;13.30;99.90;;;;;;5093059;28;20282;-75
2022/06/22 01:38:55;;;;;;;12.95;8.38;;;13.30;99.90;;;;;;5093204;28;20285;-74
2022/06/22 01:41:42;;;;;;;13.17;8.00;;;13.30;99.90;;;;;;5093032;28;20044;-75
2022/06/22 01:44:56;;;;;;;9.50;8.17;;;13.20;99.90;;;;;;5092941;28;20603;-75
2022/06/22 01:47:40;;;;;;;10.10;7.90;;;13.20;99.90;;;;;;5030391;28;20370;-75
2022/06/22 01:50:14;;;;;;;11.80;8.37;;;13.10;99.90;;;;;;5030536;28;20284;-75
2022/06/22 01:52:51;;;;;;;11.15;7.88;;;13.10;99.90;;;;;;5063235;28;20290;-75
2022/06/22 01:55:35;;;;;;;12.23;7.83;;;13.10;99.90;;;;;;5092869;28;20086;-74
2022/06/22 01:58:12;;;;;;;11.97;8.77;;;13.10;99.90;;;;;;5092710;28;20309;-74
2022/06/22 02:01:03;;;;;;;11.20;8.70;;;13.20;99.90;;;;;;5092513;28;20286;-75
2022/06/22 02:03:36;;;;;;;14.13;10.53;;;13.10;99.90;;;;;;5092406;28;20407;-75
2022/06/22 02:09:13;;;;;;;11.13;8.47;;;13.00;99.90;;;;;;5092692;28;20337;-75
2022/06/22 02:11:47;;;;;;;14.53;8.50;;;12.90;99.90;;;;;;5092362;28;20285;-75
2022/06/22 02:14:22;;;;;;;15.47;9.23;;;12.90;99.90;;;;;;5094972;28;20274;-75
2022/06/22 02:16:49;;;;;;;13.07;8.80;;;12.90;99.90;;;;;;5061860;28;20285;-75
2022/06/22 02:19:18;;;;;;;11.63;8.50;;;12.90;99.90;;;;;;5095799;28;20048;-75
2022/06/22 02:21:55;;;;;;;12.90;9.10;;;12.90;99.90;;;;;;5096074;28;20289;-75
2022/06/22 02:24:39;;;;;;;12.43;8.87;;;12.90;99.90;;;;;;5096202;28;20364;-75
2022/06/22 02:27:23;;;;;;;12.27;8.83;;;12.90;99.90;;;;;;5096120;28;20337;-75
2022/06/22 02:29:53;;;;;;;11.97;8.37;;;12.90;99.90;;;;;;5095883;28;20357;-75
2022/06/22 02:32:23;;;;;;;13.27;9.57;;;12.80;99.90;;;;;;5096291;28;20757;-75
2022/06/22 02:34:51;;;;;;;13.77;9.00;;;12.80;99.90;;;;;;5095805;28;20377;-75
2022/06/22 02:37:19;;;;;;;10.37;8.23;;;12.70;99.90;;;;;;5096101;28;20361;-75
2022/06/22 02:39:48;;;;;;;11.80;8.83;;;12.70;99.90;;;;;;5077674;28;20415;-75
2022/06/22 02:45:00;;;;;;;12.55;7.70;;;12.60;99.90;;;;;;5095551;28;20844;-74
2022/06/22 02:47:31;;;;;;;11.17;7.37;;;12.70;99.90;;;;;;5095804;28;20077;-75
2022/06/22 02:50:02;;;;;;;10.07;6.87;;;12.60;99.90;;;;;;5077953;28;20290;-75
2022/06/22 02:52:49;;;;;;;9.33;7.07;;;12.60;99.90;;;;;;5095688;28;20332;-75
2022/06/22 02:55:22;;;;;;;11.03;7.40;;;12.50;99.90;;;;;;5095741;28;20373;-75
2022/06/22 02:57:54;;;;;;;9.70;6.93;;;12.50;99.90;;;;;;5095320;28;20361;-75
2022/06/22 03:00:22;;;;;;;10.03;7.53;;;12.50;99.90;;;;;;5077494;28;20850;-75
2022/06/22 03:02:52;;;;;;;11.50;7.57;;;12.50;99.90;;;;;;5095183;28;20762;-75
2022/06/22 03:05:19;;;;;;;8.17;6.40;;;12.40;99.90;;;;;;5095463;28;20274;-75
2022/06/22 03:07:49;;;;;;;8.43;6.43;;;12.40;99.90;;;;;;5094964;28;20302;-75
2022/06/22 03:10:45;;;;;;;9.87;7.10;;;12.40;99.90;;;;;;5095402;28;20288;-75
2022/06/22 03:13:22;;;;;;;12.07;6.90;;;12.40;99.90;;;;;;5095335;28;20297;-75
2022/06/22 03:15:48;;;;;;;7.97;6.17;;;12.40;99.90;;;;;;5095055;28;20044;-75
2022/06/22 03:18:26;;;;;;;8.47;6.20;;;12.30;99.90;;;;;;5095117;28;20290;-74
2022/06/22 03:21:13;;;;;;;11.13;6.83;;;12.30;99.90;;;;;;5094941;28;20306;-75
2022/06/22 03:23:56;;;;;;;7.67;6.03;;;12.20;99.90;;;;;;5077123;28;20293;-75
2022/06/22 03:26:28;;;;;;;8.60;6.07;;;12.30;99.90;;;;;;5093817;28;20334;-75
2022/06/22 03:29:10;;;;;;;8.67;6.40;;;12.30;99.90;;;;;;5076711;28;20633;-75
2022/06/22 03:31:46;;;;;;;8.07;5.73;;;12.30;99.90;;;;;;5095006;28;20349;-75
2022/06/22 03:34:22;;;;;;;9.87;6.53;;;12.30;99.90;;;;;;5094822;28;20361;-75
2022/06/22 03:37:04;;;;;;;10.37;6.67;;;12.30;99.90;;;;;;5076343;28;20297;-75
2022/06/22 03:39:35;;;;;;;8.40;6.33;;;12.30;99.90;;;;;;5094788;28;20279;-74
2022/06/22 03:42:06;;;;;;;10.53;6.47;;;12.30;99.90;;;;;;5094542;28;20278;-75
2022/06/22 03:44:42;;;;;;;8.00;6.13;;;12.30;99.90;;;;;;5094475;28;20730;-73
2022/06/22 03:47:14;;;;;;;10.23;6.60;;;12.30;99.90;;;;;;5094182;28;20306;-75
2022/06/22 03:50:01;;;;;;;8.90;5.73;;;12.30;99.90;;;;;;5094382;28;20381;-75
2022/06/22 03:52:37;;;;;;;8.30;6.13;;;12.30;99.90;;;;;;5094662;28;20377;-75
2022/06/22 03:55:17;;;;;;;8.07;6.33;;;12.40;99.90;;;;;;5076392;28;20326;-75
2022/06/22 03:57:46;;;;;;;10.00;6.23;;;12.40;99.90;;;;;;5094514;28;20371;-75
2022/06/22 04:00:13;;;;;;;9.37;6.60;;;12.30;99.90;;;;;;5094345;28;20619;-75
2022/06/22 04:02:40;;;;;;;8.97;6.50;;;12.40;99.90;;;;;;5094036;28;20278;-75
2022/06/22 04:05:10;;;;;;;8.77;6.33;;;12.40;99.90;;;;;;5075912;28;20282;-75
2022/06/22 04:07:37;;;;;;;9.07;6.10;;;12.40;99.90;;;;;;5094099;28;20293;-75
2022/06/22 04:10:05;;;;;;;7.17;5.90;;;12.40;99.90;;;;;;5093890;28;20312;-75
2022/06/22 04:12:39;;;;;;;10.00;6.47;;;12.50;99.90;;;;;;5094150;28;20274;-75
2022/06/22 04:15:23;;;;;;;11.30;7.00;;;12.50;99.90;;;;;;5093962;28;20285;-75
2022/06/22 04:17:53;;;;;;;12.27;6.87;;;12.60;99.90;;;;;;5093643;28;20279;-75
2022/06/22 04:20:49;;;;;;;9.83;6.90;;;12.60;99.90;;;;;;5094006;28;20333;-75
2022/06/22 04:23:39;;;;;;;9.20;7.10;;;12.60;99.90;;;;;;5094554;28;20282;-75
2022/06/22 04:26:20;;;;;;;9.67;7.23;;;12.70;99.90;;;;;;5093597;28;20305;-75
2022/06/22 04:28:48;;;;;;;9.77;7.87;;;12.80;99.90;;;;;;5093487;28;20332;-75
2022/06/22 04:31:36;;;;;;;10.43;8.07;;;12.90;99.90;;;;;;5093653;28;20794;-75
2022/06/22 04:34:22;;;;;;;9.73;8.63;;;13.00;99.90;;;;;;5093565;28;20500;-75
2022/06/22 04:36:53;;;;;;;13.03;9.40;;;13.00;99.90;;;;;;5093192;28;20357;-75
2022/06/22 04:39:25;;;;;;;12.47;8.93;;;13.10;99.90;;;;;;5093737;28;20271;-75
2022/06/22 04:41:52;;;;;;;11.10;8.80;;;13.20;99.90;;;;;;5093381;28;20325;-75
2022/06/22 04:44:25;;;;;;;12.90;9.60;;;13.30;99.90;;;;;;5093772;28;20282;-75
2022/06/22 04:46:58;;;;;;;13.13;9.90;;;13.40;99.90;;;;;;5092750;28;20294;-75
2022/06/22 04:49:33;;;;;;;10.13;9.10;;;13.50;99.90;;;;;;5093648;28;20285;-75
2022/06/22 04:52:15;;;;;;;11.03;8.87;;;13.60;99.90;;;;;;5093135;28;20714;-75
2022/06/22 04:54:44;;;;;;;12.13;9.47;;;13.70;99.90;;;;;;5093456;28;20279;-75
2022/06/22 04:57:37;;;;;;;11.73;9.20;;;13.90;99.90;;;;;;5093291;28;20753;-75
2022/06/22 05:00:13;;;;;;;12.07;8.90;;;14.00;99.90;;;;;;5093037;28;20280;-75
2022/06/22 05:02:41;;;;;;;13.10;9.53;;;14.20;99.90;;;;;;5093365;28;20270;-75
2022/06/22 05:05:32;;;;;;;10.17;8.53;;;14.30;99.90;;;;;;5092927;28;20282;-75
2022/06/22 05:08:19;;;;;;;14.00;9.10;;;14.30;99.90;;;;;;5093065;28;20682;-74
2022/06/22 05:10:53;;;;;;;12.20;8.43;;;14.50;99.90;;;;;;5075173;28;20327;-75
2022/06/22 05:13:26;;;;;;;12.13;7.90;;;14.60;99.90;;;;;;5093145;28;20313;-76
2022/06/22 05:15:55;;;;;;;15.33;8.60;;;14.80;99.90;;;;;;5092816;28;20279;-74
2022/06/22 05:18:25;;;;;;;11.20;7.30;;;15.00;99.90;;;;;;5093061;28;20289;-75
2022/06/22 05:21:01;;;;;;;10.90;8.00;;;15.10;99.90;;;;;;5092713;28;20274;-75
2022/06/22 05:23:29;;;;;;;13.17;7.60;;;15.20;99.90;;;;;;5093074;28;20282;-75
2022/06/22 05:26:01;;;;;;;14.10;7.30;;;15.40;99.90;;;;;;5092628;28;20301;-75
2022/06/22 05:28:33;;;;;;;12.67;7.33;;;15.50;99.90;;;;;;5093252;28;20622;-76
2022/06/22 05:31:10;;;;;;;11.97;5.97;;;15.60;99.90;;;;;;5074833;28;20286;-75
2022/06/22 05:33:39;;;;;;;10.90;5.30;;;15.80;99.90;;;;;;5093046;28;20327;-75
2022/06/22 05:36:09;;;;;;;9.60;5.33;;;16.00;99.90;;;;;;5092665;28;20282;-75
2022/06/22 05:38:37;;;;;;;11.47;5.30;;;;;;;;;;5092891;28;20326;-75
2022/06/22 05:41:04;;;;;;;12.97;4.80;;;;;;;;;;5092546;28;20705;-75
2022/06/22 05:43:32;;;;;;;11.67;4.97;;;16.30;99.90;;;;;;5092899;28;20399;-75
2022/06/22 05:46:02;;;;;;;13.17;5.60;;;16.50;99.90;;;;;;5092390;28;20298;-75
2022/06/22 05:48:31;;;;;;;11.23;4.83;;;16.60;99.90;;;;;;5093962;28;20278;-75
2022/06/22 05:51:29;;;;;;;14.40;5.43;;;17.10;99.90;;;;;;5096550;28;20282;-75
2022/06/22 05:54:03;;;;;;;10.70;4.60;;;;;;;;;;5078633;28;20286;-75
2022/06/22 05:56:40;;;;;;;11.38;4.43;;;;;;;;;;5096679;28;20040;-75
2022/06/22 05:59:09;;;;;;;10.07;4.37;;;21.30;99.90;;;;;;5096424;28;20145;-75
2022/06/22 06:01:49;;;;;;;7.10;3.77;;;;;;;;;;5096973;28;20131;-75
2022/06/22 06:04:21;;;;;;;10.47;4.20;;;;;;;;;;5096373;28;20167;-75
2022/06/22 06:06:48;;;;;;;7.87;3.33;;;;;;;;;;5096402;28;20101;-75
2022/06/22 06:09:19;;;;;;;10.57;3.50;;;;;;;;;;5078359;28;20396;-76
2022/06/22 06:11:59;;;;;;;9.47;3.40;;;25.40;68.70;;;;;;5096585;28;20040;-75
2022/06/22 06:14:32;;;;;;;8.67;3.70;;;25.70;62.50;;;;;;5096652;28;20044;-76
2022/06/22 06:17:23;;;;;;;8.23;3.57;;;26.10;67.40;;;;;;5078232;28;20099;-76
2022/06/22 06:19:51;;;;;;;8.97;3.83;;;;;;;;;;5070197;28;20075;-76
2022/06/22 06:22:17;;;;;;;7.40;3.63;;;;;;;;;;5077938;28;20048;-76
2022/06/22 06:27:34;;;;;;;9.47;3.40;;;27.90;53.70;;;;;;5116353;28;20047;-76
2022/06/22 06:30:13;;;;;;;8.73;3.43;;;;;;;;;;5116227;28;20040;-76
2022/06/22 06:33:07;;;;;;;9.17;3.43;;;28.20;82.20;;;;;;5116461;28;20117;-75
2022/06/22 06:35:45;;;;;;;7.23;3.13;;;;;;;;;;5101788;28;20139;-75
2022/06/22 06:38:10;;;;;;;6.13;2.73;;;28.30;86.40;;;;;;5116063;28;20043;-75
2022/06/22 06:40:41;;;;;;;5.67;2.67;;;;;;;;;;5116230;28;20044;-74
2022/06/22 06:43:11;;;;;;;6.55;2.65;;;;;;;;;;5116014;28;20059;-74
2022/06/22 06:45:37;;;;;;;9.45;3.63;;;;;;;;;;5115750;28;20116;-76
2022/06/22 06:48:06;;;;;;;7.38;3.72;;;;;;;;;;5115826;28;20105;-76
2022/06/22 06:50:39;;;;;;;8.15;3.75;;;28.80;79.50;;;;;;5116200;28;20066;-79
2022/06/22 06:53:20;;;;;;;7.50;3.20;;;29.40;44.80;;;;;;5097977;28;20087;-79
2022/06/22 06:56:12;;;;;;;11.20;3.22;;;;;;;;;;5116176;28;20043;-80
2022/06/22 06:58:47;;;;;;;8.20;3.30;;;30.10;42.30;;;;;;5084596;28;20156;-79
2022/06/22 07:01:13;;;;;;;;;;;;;;;;;;5116033;28;20039;-79
2022/06/22 07:03:40;;;;;;;8.88;3.78;;;;;;;;;;5098149;28;20397;-79
2022/06/22 07:06:06;;;;;;;10.60;3.90;;;;;;;;;;5115484;28;20039;-79
2022/06/22 07:08:37;;;;;;;7.80;3.42;;;;;;;;;;5116021;28;20044;-78
2022/06/22 07:11:19;;;;;;;9.15;4.13;;;;;;;;;;5115590;28;20130;-79
2022/06/22 07:13:49;;;;;;;8.88;3.67;;;31.50;37.90;;;;;;5105080;28;20050;-78
2022/06/22 07:16:19;;;;;;;9.98;4.13;;;;;;;;;;5103645;28;20032;-78
2022/06/22 07:18:54;;;;;;;8.85;4.53;;;31.70;65.10;;;;;;5105106;28;20043;-75
2022/06/22 07:21:24;;;;;;;10.38;4.05;;;;;;;;;;5077091;28;20056;-79
2022/06/22 07:24:02;;;;;;;9.85;4.70;;;;;;;;;;5094414;28;20139;-79
2022/06/22 07:26:53;;;;;;;10.68;4.20;;;;;;;;;;5094756;28;20127;-81
2022/06/22 07:29:25;;;;;;;8.70;3.63;;;;;;;;;;5094786;28;20106;-72
2022/06/22 07:31:58;;;;;;;7.05;3.60;;;;;;;;;;5097459;28;20132;-78
2022/06/22 07:34:27;;;;;;;7.75;3.70;;;;;;;;;;5109100;28;20050;-78
2022/06/22 07:37:11;;;;;;;7.90;4.00;;;32.90;35.00;;;;;;5095385;28;20418;-79
2022/06/22 07:40:08;;;;;;;6.78;3.40;;;33.00;35.20;;;;;;5115185;28;20052;-78
2022/06/22 07:42:33;;;;;;;8.63;4.15;;;32.30;49.10;;;;;;5114053;28;20062;-78
2022/06/22 07:44:59;;;;;;;8.93;3.85;;;32.00;53.10;;;;;;5114924;28;20130;-78
2022/06/22 07:47:43;;;;;;;7.72;3.70;;;31.80;50.40;;;;;;5114921;28;20043;-78
2022/06/22 07:50:14;;;;;;;9.20;3.90;;;32.40;41.80;;;;;;5114938;28;20475;-79
2022/06/22 07:52:42;;;;;;;10.23;3.53;;;;;;;;;;5114896;28;20638;-78
2022/06/22 07:55:31;;;;;;;8.45;3.42;;;;;;;;;;5114612;28;20561;-78
2022/06/22 07:58:24;;;;;;;7.95;3.45;;;32.80;36.20;;;;;;5115023;28;20047;-78
2022/06/22 08:00:57;;;;;;;8.02;3.30;;;33.30;36.00;;;;;;5114683;28;20511;-78
2022/06/22 08:03:42;;;;;;;7.65;3.63;;;33.60;36.00;;;;;;5114199;28;20535;-79
2022/06/22 08:06:13;;;;;;;;;;;33.70;34.20;;;;;;5096702;28;20047;-79
2022/06/22 08:09:00;;;;;;;6.80;3.63;;;33.30;34.40;;;;;;5114769;28;19920;-79
2022/06/22 08:11:44;;;;;;;7.78;3.03;;;33.40;35.40;;;;;;5113990;28;20051;-78
2022/06/22 08:14:19;;;;;;;;;;;33.10;41.50;;;;;;5114931;28;20043;-78
2022/06/22 08:16:51;;;;;;;8.27;4.15;;;;;;;;;;5114879;28;19920;-78
2022/06/22 08:19:17;;;;;;;8.00;3.30;;;32.60;35.00;;;;;;5096535;28;20134;-79
2022/06/22 08:21:45;;;;;;;7.13;3.22;;;;;;;;;;5115032;28;20083;-78
2022/06/22 08:24:12;;;;;;;7.85;2.97;;;;;;;;;;5114354;28;20052;-78
2022/06/22 08:26:38;;;;;;;8.75;3.58;;;33.20;34.30;;;;;;5114291;28;20043;-79
2022/06/22 08:29:05;;;;;;;9.18;2.92;;;;;;;;;;5114507;28;20066;-78
2022/06/22 08:31:36;;;;;;;5.72;2.92;;;;;;;;;;5114122;28;20048;-78
2022/06/22 08:34:07;;;;;;;9.90;3.55;;;32.60;34.50;;;;;;5114288;28;20105;-78
2022/06/22 08:36:45;;;;;;;7.07;3.20;;;;;;;;;;5114403;28;20039;-78
2022/06/22 08:39:20;;;;;;;7.05;3.72;;;30.90;75.30;;;;;;5114035;28;20079;-78
2022/06/22 08:42:00;;;;;;;8.98;4.30;;;31.10;70.80;;;;;;5114355;28;20455;-78
2022/06/22 08:44:45;;;;;;;10.30;4.00;;;;;;;;;;5113651;28;20452;-77
2022/06/22 08:47:20;;;;;;;8.70;4.10;;;;;;;;;;5114022;28;20051;-78
2022/06/22 08:50:04;;;;;;;7.60;3.58;;;;;;;;;;5095528;28;20467;-77
2022/06/22 08:52:38;;;;;;;9.57;3.83;;;;;;;;;;5095723;28;20130;-78
2022/06/22 08:55:07;;;;;;;10.60;3.63;;;;;;;;;;5096280;28;20440;-78
2022/06/22 08:57:38;;;;;;;7.53;3.60;;;;;;;;;;5095765;28;20120;-78
2022/06/22 09:00:24;;;;;;;11.85;3.90;;;28.80;39.60;;;;;;5113761;28;20108;-78
2022/06/22 09:03:13;;;;;;;8.45;3.25;;;28.70;40.50;;;;;;5113686;28;20548;-78
2022/06/22 09:05:58;;;;;;;8.30;4.32;;;;;;;;;;5113841;28;20441;-77
2022/06/22 09:08:43;;;;;;;8.23;3.33;;;;;;;;;;5113471;28;20044;-77
2022/06/22 09:11:14;;;;;;;11.45;3.90;;;;;;;;;;5113595;28;20051;-77
2022/06/22 09:14:00;;;;;;;8.02;3.58;;;27.20;44.00;;;;;;5113599;28;20062;-77
2022/06/22 09:16:26;;;;;;;8.23;3.85;;;27.20;44.50;;;;;;5112861;28;20063;-77
2022/06/22 09:19:00;;;;;;;8.32;3.35;;;27.00;43.50;;;;;;5113662;28;20488;-77
2022/06/22 09:21:53;;;;;;;12.07;4.07;;;26.80;44.10;;;;;;5113409;28;20043;-78
2022/06/22 09:24:26;;;;;;;11.38;3.40;;;26.80;44.60;;;;;;5112400;28;20063;-78
2022/06/22 09:27:14;;;;;;;11.32;3.70;;;26.60;44.50;;;;;;5113184;28;20521;-77
2022/06/22 09:30:12;;;;;;;10.00;3.88;;;26.60;63.90;;;;;;5113776;28;20100;-77
2022/06/22 09:33:03;;;;;;;7.70;3.67;;;26.40;62.30;;;;;;5113423;28;20189;-77
2022/06/22 09:35:50;;;;;;;9.98;4.25;;;26.40;62.40;;;;;;5113259;28;20173;-77
2022/06/22 09:38:42;;;;;;;9.35;3.45;;;26.10;45.00;;;;;;5113210;28;20484;-78
2022/06/22 09:41:37;;;;;;;6.93;3.45;;;26.10;45.30;;;;;;5098504;28;20123;-77
2022/06/22 09:44:03;;;;;;;;;;;;;;;;;;5113974;28;20044;-77
2022/06/22 09:46:50;;;;;;;6.70;3.00;;;25.60;80.80;;;;;;5113189;28;20034;-77
2022/06/22 09:50:03;;;;;;;6.77;3.27;;;25.00;46.10;;;;;;5113087;28;20459;-77
2022/06/22 09:52:50;;;;;;;6.33;2.83;;;24.70;46.40;;;;;;5030145;28;20053;-77
2022/06/22 09:58:36;;;;;;;6.93;3.20;;;24.60;47.20;;;;;;5113112;28;20047;-78
2022/06/22 10:01:23;;;;;;;9.17;2.87;;;24.50;46.90;;;;;;5113398;28;20090;-78
2022/06/22 10:04:26;;;;;;;8.93;3.50;;;24.30;46.80;;;;;;5113237;28;20540;-78
2022/06/22 10:07:20;;;;;;;8.10;3.30;;;24.20;48.10;;;;;;5113047;28;20070;-78
2022/06/22 10:10:13;;;;;;;7.73;3.17;;;24.10;48.40;;;;;;5113357;28;20048;-78
2022/06/22 10:13:13;;;;;;;6.33;2.70;;;23.90;48.90;;;;;;5094885;28;20156;-78
2022/06/22 10:16:01;;;;;;;7.03;2.93;;;24.00;48.60;;;;;;5112917;28;20047;-78
2022/06/22 10:18:43;;;;;;;8.33;3.23;;;24.20;49.60;;;;;;5112809;28;20099;-78
2022/06/22 10:21:35;;;;;;;8.90;3.27;;;24.40;49.00;;;;;;5113153;28;20093;-78
2022/06/22 10:24:26;;;;;;;8.93;3.10;;;24.20;48.40;;;;;;5112972;28;20079;-77
2022/06/22 10:27:16;;;;;;;8.37;2.97;;;24.00;49.60;;;;;;5112857;28;20036;-77
2022/06/22 10:29:50;;;;;;;8.20;3.40;;;24.00;49.70;;;;;;5112758;28;20087;-77
2022/06/22 10:32:31;;;;;;;8.45;3.22;;;23.90;50.50;;;;;;5113040;28;20099;-77
2022/06/22 10:35:01;;;;;;;7.73;3.00;;;24.00;50.50;;;;;;5114527;28;20054;-77
2022/06/22 10:37:49;;;;;;;8.67;3.27;;;24.20;49.80;;;;;;5116340;28;20044;-77
2022/06/22 10:46:41;;;;;;;12.50;4.10;;;24.00;50.50;;;;;;5116134;28;20052;-77
2022/06/22 10:49:11;;;;;;;8.40;4.07;;;23.80;51.20;;;;;;5098450;28;20581;-76
2022/06/22 10:52:23;;;;;;;10.47;4.30;;;23.80;51.80;;;;;;5116004;28;20126;-77
2022/06/22 10:55:19;;;;;;;11.43;4.00;;;23.70;52.50;;;;;;5042427;28;20071;-75
2022/06/22 10:58:21;;;;;;;8.97;3.73;;;23.70;52.60;;;;;;5115802;28;20115;-71
2022/06/22 11:01:11;;;;;;;8.83;4.27;;;23.50;51.20;;;;;;5115657;28;20047;-76
2022/06/22 11:03:48;;;;;;;9.00;3.80;;;23.50;53.00;;;;;;5097681;28;20134;-76
2022/06/22 11:06:51;;;;;;;10.80;4.30;;;23.50;53.00;;;;;;5115778;28;20105;-69
2022/06/22 11:09:44;;;;;;;10.27;4.10;;;23.60;52.50;;;;;;5116032;28;20396;-76
2022/06/22 11:12:27;;;;;;;8.23;3.70;;;23.40;52.30;;;;;;5115728;28;20044;-76
2022/06/22 11:15:32;;;;;;;8.30;3.60;;;23.50;52.60;;;;;;5115713;28;20051;-76
2022/06/22 11:18:14;;;;;;;8.45;3.80;;;23.50;52.10;;;;;;5115652;28;20052;-77
2022/06/22 11:20:57;;;;;;;8.90;3.93;;;23.50;52.20;;;;;;5115401;28;20051;-76
2022/06/22 11:23:52;;;;;;;9.53;3.00;;;23.40;52.60;;;;;;5115641;28;20051;-76
2022/06/22 11:32:16;;;;;;;9.73;3.67;;;23.40;52.10;;;;;;5108742;28;20495;-69
2022/06/22 11:35:03;;;;;;;10.60;4.60;;;23.20;52.70;;;;;;5105291;28;20043;-68
2022/06/22 11:37:42;;;;;;;11.50;4.30;;;23.10;52.70;;;;;;5104185;28;20403;-70
2022/06/22 11:40:35;;;;;;;7.70;3.63;;;23.10;53.20;;;;;;5086084;28;20132;-70
2022/06/22 11:43:07;;;;;;;7.37;3.40;;;23.20;53.60;;;;;;5087702;28;20054;-70
2022/06/22 11:45:58;;;;;;;6.83;3.50;;;23.30;53.70;;;;;;5059261;28;20103;-71
2022/06/22 11:48:27;;;;;;;9.10;4.00;;;23.30;53.40;;;;;;5063158;28;20123;-71
2022/06/22 11:50:59;;;;;;;9.10;4.30;;;23.30;53.80;;;;;;5074050;28;20102;-71
2022/06/22 11:53:50;;;;;;;7.47;3.83;;;23.30;53.60;;;;;;5074497;28;20088;-71
2022/06/22 11:56:45;;;;;;;8.77;3.83;;;23.20;53.10;;;;;;5074485;28;20045;-71
2022/06/22 11:59:43;;;;;;;10.60;3.40;;;23.10;53.50;;;;;;5019785;28;20058;-71
2022/06/22 12:02:27;;;;;;;10.10;3.23;;;23.10;53.90;;;;;;5074139;28;20048;-70
2022/06/22 12:05:23;;;;;;;7.67;3.03;;;23.10;53.50;;;;;;5074249;28;20048;-76
2022/06/22 12:08:07;;;;;;;8.13;3.20;;;23.20;54.30;;;;;;5073401;28;20500;-75
2022/06/22 12:11:10;;;;;;;7.07;2.95;;;23.20;54.10;;;;;;5073846;28;20131;-77
2022/06/22 12:17:05;;;;;;;9.23;3.23;;;23.10;52.10;;;;;;5057113;28;20091;-76
2022/06/22 12:19:48;;;;;;;8.90;4.00;;;23.00;52.10;;;;;;5073442;28;20383;-77
2022/06/22 12:22:27;;;;;;;9.90;4.17;;;23.00;53.90;;;;;;5074065;28;20048;-75
2022/06/22 12:25:16;;;;;;;9.70;4.47;;;23.00;55.40;;;;;;5072511;28;20492;-78
2022/06/22 12:27:46;;;;;;;10.90;4.57;;;23.00;56.00;;;;;;5073406;28;20041;-69
2022/06/22 12:30:38;;;;;;;9.47;3.77;;;23.10;55.80;;;;;;5073524;28;20048;-70
2022/06/22 12:33:10;;;;;;;9.97;4.10;;;23.10;56.20;;;;;;5073624;28;20044;-70
2022/06/22 12:35:42;;;;;;;7.33;3.67;;;23.10;55.70;;;;;;5073363;28;20186;-74
2022/06/22 12:38:20;;;;;;;7.17;3.20;;;23.10;56.20;;;;;;5070920;28;20094;-69
2022/06/22 12:40:48;;;;;;;9.73;4.10;;;23.00;56.60;;;;;;5062978;28;20138;-71
2022/06/22 12:44:07;;;;;;;9.43;4.30;;;23.00;56.60;;;;;;5060928;28;20041;-72
2022/06/22 12:47:07;;;;;;;10.93;4.37;;;23.10;55.00;;;;;;5043379;28;20047;-70
2022/06/22 12:49:36;;;;;;;10.83;3.93;;;23.00;56.00;;;;;;5083081;28;20056;-70
2022/06/22 12:52:18;;;;;;;8.80;4.13;;;23.10;57.00;;;;;;5081611;28;20365;-69
2022/06/22 12:54:51;;;;;;;11.27;4.97;;;23.10;56.00;;;;;;5081742;28;20037;-74
2022/06/22 12:57:41;;;;;;;10.63;4.23;;;23.10;57.30;;;;;;5087461;28;20036;-75
2022/06/22 13:00:19;;;;;;;10.97;4.17;;;23.00;57.60;;;;;;5078028;28;20055;-70
2022/06/22 13:02:46;;;;;;;9.70;4.10;;;23.00;58.20;;;;;;5097049;28;20035;-77
2022/06/22 13:05:18;;;;;;;10.77;3.93;;;23.00;58.70;;;;;;5101945;28;20051;-77
2022/06/22 13:07:49;;;;;;;13.50;4.70;;;23.00;59.10;;;;;;5094911;28;20043;-76
2022/06/22 13:10:20;;;;;;;8.87;3.70;;;23.00;59.70;;;;;;5092016;28;20499;-77
2022/06/22 13:13:11;;;;;;;11.17;4.17;;;22.90;60.10;;;;;;5110854;28;20056;-76
2022/06/22 13:15:42;;;;;;;9.97;4.77;;;22.90;60.20;;;;;;5108222;28;20444;-76
2022/06/22 13:18:33;;;;;;;12.10;4.53;;;23.00;60.50;;;;;;5110579;28;20066;-76
2022/06/22 13:21:08;;;;;;;13.00;4.80;;;22.90;60.70;;;;;;5110501;28;20479;-69
2022/06/22 13:24:24;;;;;;;14.32;4.55;;;22.80;61.40;;;;;;5110312;28;20165;-69
2022/06/22 13:26:59;;;;;;;;;;;22.90;62.00;;;;;;5088596;28;20337;-68
2022/06/22 13:29:50;;;;;;;11.23;3.70;;;23.10;63.00;;;;;;5088871;28;20319;-71
2022/06/22 13:32:17;;;;;;;9.63;3.80;;;23.10;62.00;;;;;;5110358;28;20056;-70
2022/06/22 13:34:52;;;;;;;9.13;3.40;;;23.20;62.60;;;;;;5092364;28;20056;-70
2022/06/22 13:37:50;;;;;;;;;;;23.20;62.10;;;;;;5092543;28;20060;-71
2022/06/22 13:40:34;;;;;;;9.40;3.97;;;23.20;62.80;;;;;;5107607;28;19926;-71
2022/06/22 13:43:30;;;;;;;9.77;4.03;;;23.30;62.90;;;;;;5107716;28;20094;-71
2022/06/22 13:46:33;;;;;;;8.60;4.60;;;23.30;63.20;;;;;;5113639;28;20164;-71
2022/06/22 13:49:24;;;;;;;12.40;4.60;;;23.20;62.70;;;;;;5127755;28;20072;-71
2022/06/22 13:52:34;;;;;;;10.13;4.43;;;23.20;64.50;;;;;;5127024;28;20047;-73
2022/06/22 13:55:37;;;;;;;12.07;4.77;;;23.20;66.90;;;;;;5083364;28;20050;-77
2022/06/22 13:58:18;;;;;;;14.27;5.30;;;23.20;69.00;;;;;;5101564;28;20368;-74
2022/06/22 14:00:53;;;;;;;11.90;5.17;;;23.00;69.70;;;;;;5127133;28;20050;-71
2022/06/22 14:03:38;;;;;;;10.17;5.07;;;23.00;72.90;;;;;;5127362;28;20039;-69
2022/06/22 14:06:16;;;;;;;10.95;5.03;;;23.00;75.00;;;;;;5125254;28;20043;-70
2022/06/22 14:08:56;;;;;;;9.37;4.60;;;23.10;75.30;;;;;;5126414;27;20115;-70
2022/06/22 14:11:46;;;;;;;11.80;6.00;;;23.10;77.50;;;;;;5130841;27;20085;-70
2022/06/22 14:14:31;;;;;;;12.57;5.23;;;23.20;78.40;;;;;;5135910;27;20075;-71
2022/06/22 14:17:21;;;;;;;13.30;5.40;;;23.20;80.10;;;;;;5137147;27;20158;-71
2022/06/22 14:20:09;;;;;;;13.50;5.27;;;23.10;80.90;;;;;;5118861;27;20139;-71
2022/06/22 14:22:41;;;;;;;15.20;5.60;;;23.00;84.50;;;;;;5137489;27;20051;-71
2022/06/22 14:25:45;;;;;;;12.07;4.80;;;22.90;86.10;;;;;;5118483;27;20138;-69
2022/06/22 14:28:22;;;;;;;9.60;4.27;;;22.80;88.50;;;;;;5136903;27;20055;-70